sensor_id;sensor_type;location;lat;lon;timestamp;pressure;altitude;pressure_sealevel;temperature;humidity
34243;BME280;20504;43.214;27.920;2022-11-23T00:01:33;96877.38;;;17.39;100.00
34243;BME280;20504;43.214;27.920;2022-11-23T00:04:23;96927.47;;;18.04;100.00
34243;BME280;20504;43.214;27.920;2022-11-23T00:07:14;96917.09;;;18.07;100.00
34243;BME280;20504;43.214;27.920;2022-11-23T00:09:43;96874.06;;;18.02;100.00
34243;BME280;20504;43.214;27.920;2022-11-23T00:12:15;96898.09;;;18.09;100.00
34243;BME280;20504;43.214;27.920;2022-11-23T00:14:48;96945.41;;;18.15;100.00
34243;BME280;20504;43.214;27.920;2022-11-23T00:17:15;96977.34;;;18.05;100.00
34243;BME280;20504;43.214;27.920;2022-11-23T00:19:41;96891.19;;;18.01;100.00
34243;BME280;20504;43.214;27.920;2022-11-23T00:22:16;96966.38;;;18.18;100.00
34243;BME280;20504;43.214;27.920;2022-11-23T00:24:44;96964.63;;;18.12;100.00
34243;BME280;20504;43.214;27.920;2022-11-23T00:27:14;96936.19;;;17.99;100.00
34243;BME280;20504;43.214;27.920;2022-11-23T00:29:43;97014.63;;;18.18;100.00
34243;BME280;20504;43.214;27.920;2022-11-23T00:32:15;96985.03;;;17.90;100.00
34243;BME280;20504;43.214;27.920;2022-11-23T00:34:53;97012.66;;;18.13;100.00
34243;BME280;20504;43.214;27.920;2022-11-23T00:37:26;97032.13;;;18.09;100.00
34243;BME280;20504;43.214;27.920;2022-11-23T00:39:53;97031.63;;;18.00;100.00
34243;BME280;20504;43.214;27.920;2022-11-23T00:42:42;97002.06;;;18.19;100.00
34243;BME280;20504;43.214;27.920;2022-11-23T00:45:15;96944.72;;;18.08;100.00
34243;BME280;20504;43.214;27.920;2022-11-23T00:48:03;96932.09;;;18.20;100.00
34243;BME280;20504;43.214;27.920;2022-11-23T00:50:44;96904.84;;;18.00;100.00
34243;BME280;20504;43.214;27.920;2022-11-23T00:53:34;96971.66;;;18.25;100.00
34243;BME280;20504;43.214;27.920;2022-11-23T00:56:15;96968.94;;;18.36;100.00
34243;BME280;20504;43.214;27.920;2022-11-23T00:59:06;96960.78;;;18.31;100.00
34243;BME280;20504;43.214;27.920;2022-11-23T01:01:35;96912.06;;;18.23;100.00
34243;BME280;20504;43.214;27.920;2022-11-23T01:04:04;96926.06;;;18.13;100.00
34243;BME280;20504;43.214;27.920;2022-11-23T01:06:36;96971.53;;;18.43;100.00
34243;BME280;20504;43.214;27.920;2022-11-23T01:09:13;96969.41;;;18.33;100.00
34243;BME280;20504;43.214;27.920;2022-11-23T01:11:42;96997.38;;;18.14;100.00
34243;BME280;20504;43.214;27.920;2022-11-23T01:14:11;96831.38;;;18.24;100.00
34243;BME280;20504;43.214;27.920;2022-11-23T01:16:39;96881.06;;;18.15;100.00
34243;BME280;20504;43.214;27.920;2022-11-23T01:19:12;96841.78;;;18.09;100.00
34243;BME280;20504;43.214;27.920;2022-11-23T01:21:44;96907.72;;;18.33;100.00
34243;BME280;20504;43.214;27.920;2022-11-23T01:24:33;96884.31;;;18.17;100.00
34243;BME280;20504;43.214;27.920;2022-11-23T01:26:59;96827.75;;;18.19;100.00
34243;BME280;20504;43.214;27.920;2022-11-23T01:29:25;96821.66;;;18.46;100.00
34243;BME280;20504;43.214;27.920;2022-11-23T01:31:52;96790.56;;;18.62;100.00
34243;BME280;20504;43.214;27.920;2022-11-23T01:34:17;96742.31;;;18.22;100.00
34243;BME280;20504;43.214;27.920;2022-11-23T01:36:43;96758.44;;;18.39;100.00
34243;BME280;20504;43.214;27.920;2022-11-23T01:39:10;96743.75;;;18.41;100.00
34243;BME280;20504;43.214;27.920;2022-11-23T01:41:49;96750.69;;;18.54;100.00
34243;BME280;20504;43.214;27.920;2022-11-23T01:44:27;96709.66;;;18.25;100.00
34243;BME280;20504;43.214;27.920;2022-11-23T01:46:54;96648.09;;;18.47;100.00
34243;BME280;20504;43.214;27.920;2022-11-23T01:49:19;96716.94;;;18.41;100.00
34243;BME280;20504;43.214;27.920;2022-11-23T01:51:48;96624.19;;;18.29;100.00
34243;BME280;20504;43.214;27.920;2022-11-23T01:54:36;96665.94;;;18.25;100.00
34243;BME280;20504;43.214;27.920;2022-11-23T01:57:08;96619.53;;;18.07;100.00
34243;BME280;20504;43.214;27.920;2022-11-23T01:59:38;96597.53;;;18.22;100.00
34243;BME280;20504;43.214;27.920;2022-11-23T02:02:07;96607.78;;;18.42;100.00
34243;BME280;20504;43.214;27.920;2022-11-23T02:04:38;96577.72;;;18.23;100.00
34243;BME280;20504;43.214;27.920;2022-11-23T02:07:06;96548.84;;;18.47;100.00
34243;BME280;20504;43.214;27.920;2022-11-23T02:09:36;96528.28;;;18.36;100.00
34243;BME280;20504;43.214;27.920;2022-11-23T02:12:05;96567.66;;;18.64;100.00
34243;BME280;20504;43.214;27.920;2022-11-23T02:14:31;96570.22;;;18.25;100.00
34243;BME280;20504;43.214;27.920;2022-11-23T02:16:57;96590.22;;;18.51;100.00
34243;BME280;20504;43.214;27.920;2022-11-23T02:22:23;96529.66;;;18.22;100.00
34243;BME280;20504;43.214;27.920;2022-11-23T02:24:53;96607.53;;;18.27;100.00
34243;BME280;20504;43.214;27.920;2022-11-23T02:27:20;96592.47;;;18.59;100.00
34243;BME280;20504;43.214;27.920;2022-11-23T02:29:47;96508.19;;;18.38;100.00
34243;BME280;20504;43.214;27.920;2022-11-23T02:32:20;96552.69;;;18.68;100.00
34243;BME280;20504;43.214;27.920;2022-11-23T02:34:49;96553.66;;;18.62;100.00
34243;BME280;20504;43.214;27.920;2022-11-23T02:37:14;96566.56;;;18.48;100.00
34243;BME280;20504;43.214;27.920;2022-11-23T02:39:44;96537.75;;;18.77;100.00
34243;BME280;20504;43.214;27.920;2022-11-23T02:42:10;96595.69;;;19.12;100.00
34243;BME280;20504;43.214;27.920;2022-11-23T02:44:43;96607.06;;;18.97;100.00
34243;BME280;20504;43.214;27.920;2022-11-23T02:47:12;96708.31;;;19.18;100.00
34243;BME280;20504;43.214;27.920;2022-11-23T02:49:39;96796.56;;;18.81;100.00
34243;BME280;20504;43.214;27.920;2022-11-23T02:52:05;96829.22;;;19.06;100.00
34243;BME280;20504;43.214;27.920;2022-11-23T02:54:31;96836.38;;;19.01;100.00
34243;BME280;20504;43.214;27.920;2022-11-23T02:57:15;96968.03;;;19.06;100.00
34243;BME280;20504;43.214;27.920;2022-11-23T02:59:42;96952.25;;;19.10;100.00
34243;BME280;20504;43.214;27.920;2022-11-23T03:02:13;97031.34;;;18.55;100.00
34243;BME280;20504;43.214;27.920;2022-11-23T03:04:38;97123.19;;;18.92;100.00
34243;BME280;20504;43.214;27.920;2022-11-23T03:07:04;97131.59;;;18.84;100.00
34243;BME280;20504;43.214;27.920;2022-11-23T03:09:30;97162.88;;;18.90;100.00
34243;BME280;20504;43.214;27.920;2022-11-23T03:11:56;97190.88;;;18.71;100.00
34243;BME280;20504;43.214;27.920;2022-11-23T03:14:22;97245.28;;;18.78;100.00
34243;BME280;20504;43.214;27.920;2022-11-23T03:16:48;97243.88;;;18.57;100.00
34243;BME280;20504;43.214;27.920;2022-11-23T03:19:14;97293.22;;;18.74;100.00
34243;BME280;20504;43.214;27.920;2022-11-23T03:21:39;97284.09;;;18.45;100.00
34243;BME280;20504;43.214;27.920;2022-11-23T03:24:05;97239.31;;;18.46;100.00
34243;BME280;20504;43.214;27.920;2022-11-23T03:26:32;97238.50;;;18.87;100.00
34243;BME280;20504;43.214;27.920;2022-11-23T03:29:00;97247.16;;;18.59;100.00
34243;BME280;20504;43.214;27.920;2022-11-23T03:31:26;97210.38;;;18.48;100.00
34243;BME280;20504;43.214;27.920;2022-11-23T03:33:54;97167.75;;;18.70;100.00
34243;BME280;20504;43.214;27.920;2022-11-23T03:36:20;97177.56;;;18.64;100.00
34243;BME280;20504;43.214;27.920;2022-11-23T03:38:49;97159.88;;;18.57;100.00
34243;BME280;20504;43.214;27.920;2022-11-23T03:41:16;97155.91;;;18.48;100.00
34243;BME280;20504;43.214;27.920;2022-11-23T03:43:43;97135.16;;;18.55;100.00
34243;BME280;20504;43.214;27.920;2022-11-23T03:46:08;97164.03;;;18.83;100.00
34243;BME280;20504;43.214;27.920;2022-11-23T03:48:36;97175.00;;;18.69;100.00
34243;BME280;20504;43.214;27.920;2022-11-23T03:51:03;97202.16;;;18.61;100.00
34243;BME280;20504;43.214;27.920;2022-11-23T03:53:29;97194.06;;;18.50;100.00
34243;BME280;20504;43.214;27.920;2022-11-23T03:55:55;97245.81;;;18.68;100.00
34243;BME280;20504;43.214;27.920;2022-11-23T03:58:23;97297.63;;;18.69;100.00
34243;BME280;20504;43.214;27.920;2022-11-23T04:00:49;97300.41;;;19.04;100.00
34243;BME280;20504;43.214;27.920;2022-11-23T04:03:16;97335.44;;;18.49;100.00
34243;BME280;20504;43.214;27.920;2022-11-23T04:05:42;97379.88;;;18.63;100.00
34243;BME280;20504;43.214;27.920;2022-11-23T04:08:08;97346.75;;;18.51;100.00
34243;BME280;20504;43.214;27.920;2022-11-23T04:10:34;97362.28;;;18.97;100.00
34243;BME280;20504;43.214;27.920;2022-11-23T04:12:59;97343.84;;;18.53;100.00
34243;BME280;20504;43.214;27.920;2022-11-23T04:15:26;97316.91;;;18.59;100.00
34243;BME280;20504;43.214;27.920;2022-11-23T04:17:53;97319.59;;;18.59;100.00
34243;BME280;20504;43.214;27.920;2022-11-23T04:20:20;97318.44;;;18.55;100.00
34243;BME280;20504;43.214;27.920;2022-11-23T04:22:45;97316.56;;;18.56;100.00
34243;BME280;20504;43.214;27.920;2022-11-23T04:25:12;97364.41;;;18.77;100.00
34243;BME280;20504;43.214;27.920;2022-11-23T04:27:39;97358.84;;;18.42;100.00
34243;BME280;20504;43.214;27.920;2022-11-23T04:30:09;97354.81;;;18.99;100.00
34243;BME280;20504;43.214;27.920;2022-11-23T04:32:36;97347.34;;;18.53;100.00
34243;BME280;20504;43.214;27.920;2022-11-23T04:35:04;97367.06;;;18.10;100.00
34243;BME280;20504;43.214;27.920;2022-11-23T04:37:51;97308.75;;;17.88;100.00
34243;BME280;20504;43.214;27.920;2022-11-23T04:40:17;97268.78;;;17.61;100.00
34243;BME280;20504;43.214;27.920;2022-11-23T04:42:45;97239.28;;;17.68;100.00
34243;BME280;20504;43.214;27.920;2022-11-23T04:45:11;97200.53;;;17.64;100.00
34243;BME280;20504;43.214;27.920;2022-11-23T04:47:37;97248.50;;;17.47;100.00
34243;BME280;20504;43.214;27.920;2022-11-23T04:50:03;97162.50;;;17.18;100.00
34243;BME280;20504;43.214;27.920;2022-11-23T04:52:29;97082.28;;;17.30;100.00
34243;BME280;20504;43.214;27.920;2022-11-23T04:54:57;97042.25;;;17.35;100.00
34243;BME280;20504;43.214;27.920;2022-11-23T05:00:16;96955.69;;;17.23;100.00
34243;BME280;20504;43.214;27.920;2022-11-23T05:02:43;96866.34;;;17.06;100.00
34243;BME280;20504;43.214;27.920;2022-11-23T05:05:09;96806.41;;;16.95;100.00
34243;BME280;20504;43.214;27.920;2022-11-23T05:07:48;96793.91;;;17.42;100.00
34243;BME280;20504;43.214;27.920;2022-11-23T05:10:15;96758.00;;;17.08;100.00
34243;BME280;20504;43.214;27.920;2022-11-23T05:13:01;96700.06;;;17.37;100.00
34243;BME280;20504;43.214;27.920;2022-11-23T05:15:28;96538.50;;;17.32;100.00
34243;BME280;20504;43.214;27.920;2022-11-23T05:18:02;96480.97;;;17.34;100.00
34243;BME280;20504;43.214;27.920;2022-11-23T05:20:35;96457.72;;;17.51;100.00
34243;BME280;20504;43.214;27.920;2022-11-23T05:23:07;96436.63;;;17.55;100.00
34243;BME280;20504;43.214;27.920;2022-11-23T05:25:34;96363.88;;;17.63;100.00
34243;BME280;20504;43.214;27.920;2022-11-23T05:28:01;96258.63;;;17.46;100.00
34243;BME280;20504;43.214;27.920;2022-11-23T05:30:31;96235.66;;;17.67;100.00
34243;BME280;20504;43.214;27.920;2022-11-23T05:33:01;96213.00;;;17.74;100.00
34243;BME280;20504;43.214;27.920;2022-11-23T05:35:27;96308.19;;;17.65;100.00
34243;BME280;20504;43.214;27.920;2022-11-23T05:37:54;96492.63;;;17.56;100.00
34243;BME280;20504;43.214;27.920;2022-11-23T05:40:19;96569.25;;;17.69;100.00
34243;BME280;20504;43.214;27.920;2022-11-23T05:42:53;96567.56;;;17.40;100.00
34243;BME280;20504;43.214;27.920;2022-11-23T05:48:22;96619.53;;;17.67;100.00
34243;BME280;20504;43.214;27.920;2022-11-23T05:50:49;96601.81;;;17.78;100.00
34243;BME280;20504;43.214;27.920;2022-11-23T05:53:15;96606.19;;;17.44;100.00
34243;BME280;20504;43.214;27.920;2022-11-23T05:55:41;96634.50;;;17.40;100.00
34243;BME280;20504;43.214;27.920;2022-11-23T05:58:08;96626.56;;;17.56;100.00
34243;BME280;20504;43.214;27.920;2022-11-23T06:00:37;96631.16;;;17.33;100.00
34243;BME280;20504;43.214;27.920;2022-11-23T06:03:03;96654.38;;;17.67;100.00
34243;BME280;20504;43.214;27.920;2022-11-23T06:05:46;96663.81;;;17.58;100.00
34243;BME280;20504;43.214;27.920;2022-11-23T06:08:12;96602.44;;;17.56;100.00
34243;BME280;20504;43.214;27.920;2022-11-23T06:10:37;96575.66;;;17.68;100.00
34243;BME280;20504;43.214;27.920;2022-11-23T06:13:04;96650.28;;;17.65;100.00
34243;BME280;20504;43.214;27.920;2022-11-23T06:15:33;96656.34;;;17.60;100.00
34243;BME280;20504;43.214;27.920;2022-11-23T06:18:04;96617.06;;;17.66;100.00
34243;BME280;20504;43.214;27.920;2022-11-23T06:20:30;96640.50;;;17.59;100.00
34243;BME280;20504;43.214;27.920;2022-11-23T06:23:01;96571.59;;;17.54;100.00
34243;BME280;20504;43.214;27.920;2022-11-23T06:25:28;96572.44;;;17.43;100.00
34243;BME280;20504;43.214;27.920;2022-11-23T06:27:56;96628.81;;;17.88;100.00
34243;BME280;20504;43.214;27.920;2022-11-23T06:30:23;96594.44;;;17.45;100.00
34243;BME280;20504;43.214;27.920;2022-11-23T06:32:49;96524.94;;;17.95;100.00
34243;BME280;20504;43.214;27.920;2022-11-23T06:35:15;96510.63;;;17.73;100.00
34243;BME280;20504;43.214;27.920;2022-11-23T06:37:41;96510.16;;;17.93;100.00
34243;BME280;20504;43.214;27.920;2022-11-23T06:40:10;96427.66;;;17.78;100.00
34243;BME280;20504;43.214;27.920;2022-11-23T06:42:36;96407.91;;;17.67;100.00
34243;BME280;20504;43.214;27.920;2022-11-23T06:45:02;96263.31;;;17.89;100.00
34243;BME280;20504;43.214;27.920;2022-11-23T06:47:29;96308.31;;;18.09;100.00
34243;BME280;20504;43.214;27.920;2022-11-23T06:49:57;96306.56;;;17.98;100.00
34243;BME280;20504;43.214;27.920;2022-11-23T06:55:23;96328.66;;;18.05;100.00
34243;BME280;20504;43.214;27.920;2022-11-23T06:57:51;96255.78;;;18.08;100.00
34243;BME280;20504;43.214;27.920;2022-11-23T07:00:18;96270.66;;;17.99;100.00
34243;BME280;20504;43.214;27.920;2022-11-23T07:02:53;96319.84;;;17.71;100.00
34243;BME280;20504;43.214;27.920;2022-11-23T07:05:20;96337.09;;;17.63;100.00
34243;BME280;20504;43.214;27.920;2022-11-23T07:07:46;96379.22;;;18.01;100.00
34243;BME280;20504;43.214;27.920;2022-11-23T07:10:13;96359.78;;;17.72;100.00
34243;BME280;20504;43.214;27.920;2022-11-23T07:12:39;96451.47;;;18.08;100.00
34243;BME280;20504;43.214;27.920;2022-11-23T07:15:08;96462.16;;;18.41;100.00
34243;BME280;20504;43.214;27.920;2022-11-23T07:17:55;96472.47;;;17.99;100.00
34243;BME280;20504;43.214;27.920;2022-11-23T07:20:23;96542.25;;;18.38;100.00
34243;BME280;20504;43.214;27.920;2022-11-23T07:22:57;96606.34;;;18.68;100.00
34243;BME280;20504;43.214;27.920;2022-11-23T07:25:27;96604.84;;;18.27;100.00
34243;BME280;20504;43.214;27.920;2022-11-23T07:27:57;96667.44;;;18.49;100.00
34243;BME280;20504;43.214;27.920;2022-11-23T07:30:36;96693.63;;;18.59;100.00
34243;BME280;20504;43.214;27.920;2022-11-23T07:33:06;96737.19;;;18.49;100.00
34243;BME280;20504;43.214;27.920;2022-11-23T07:35:33;96807.19;;;18.36;100.00
34243;BME280;20504;43.214;27.920;2022-11-23T07:38:01;96823.91;;;18.26;100.00
34243;BME280;20504;43.214;27.920;2022-11-23T07:40:28;96815.50;;;18.34;100.00
34243;BME280;20504;43.214;27.920;2022-11-23T07:43:00;96828.09;;;18.34;100.00
34243;BME280;20504;43.214;27.920;2022-11-23T07:45:33;96855.38;;;17.61;100.00
34243;BME280;20504;43.214;27.920;2022-11-23T07:48:05;96764.44;;;17.89;100.00
34243;BME280;20504;43.214;27.920;2022-11-23T07:50:41;96814.00;;;18.27;100.00
34243;BME280;20504;43.214;27.920;2022-11-23T07:53:12;96799.22;;;18.12;100.00
34243;BME280;20504;43.214;27.920;2022-11-23T07:56:02;96727.50;;;17.79;100.00
34243;BME280;20504;43.214;27.920;2022-11-23T07:58:35;96731.47;;;17.89;100.00
34243;BME280;20504;43.214;27.920;2022-11-23T08:01:25;96729.50;;;17.72;100.00
34243;BME280;20504;43.214;27.920;2022-11-23T08:04:37;96725.59;;;18.32;100.00
34243;BME280;20504;43.214;27.920;2022-11-23T08:07:08;96670.19;;;18.37;100.00
34243;BME280;20504;43.214;27.920;2022-11-23T08:09:54;96660.00;;;18.39;100.00
34243;BME280;20504;43.214;27.920;2022-11-23T08:12:28;96596.69;;;18.05;100.00
34243;BME280;20504;43.214;27.920;2022-11-23T08:15:34;96642.19;;;18.62;100.00
34243;BME280;20504;43.214;27.920;2022-11-23T08:18:28;96640.38;;;18.51;100.00
34243;BME280;20504;43.214;27.920;2022-11-23T08:24:47;96592.78;;;18.12;100.00
34243;BME280;20504;43.214;27.920;2022-11-23T08:27:15;96571.84;;;18.26;100.00
34243;BME280;20504;43.214;27.920;2022-11-23T08:29:49;96601.47;;;18.65;100.00
34243;BME280;20504;43.214;27.920;2022-11-23T08:32:21;96547.31;;;18.34;100.00
34243;BME280;20504;43.214;27.920;2022-11-23T08:34:53;96594.72;;;18.79;100.00
34243;BME280;20504;43.214;27.920;2022-11-23T08:37:27;96619.19;;;18.83;100.00
34243;BME280;20504;43.214;27.920;2022-11-23T08:40:11;96679.94;;;19.05;100.00
34243;BME280;20504;43.214;27.920;2022-11-23T08:42:53;96652.59;;;18.75;100.00
34243;BME280;20504;43.214;27.920;2022-11-23T08:45:21;96693.25;;;18.67;100.00
34243;BME280;20504;43.214;27.920;2022-11-23T08:47:57;96786.25;;;19.06;100.00
34243;BME280;20504;43.214;27.920;2022-11-23T08:50:30;96782.38;;;18.97;100.00
34243;BME280;20504;43.214;27.920;2022-11-23T08:53:06;96790.16;;;18.82;100.00
34243;BME280;20504;43.214;27.920;2022-11-23T08:55:36;96827.09;;;19.09;100.00
34243;BME280;20504;43.214;27.920;2022-11-23T08:58:05;96813.41;;;18.93;100.00
34243;BME280;20504;43.214;27.920;2022-11-23T09:00:44;96795.34;;;18.60;100.00
34243;BME280;20504;43.214;27.920;2022-11-23T09:03:21;96786.84;;;18.52;100.00
34243;BME280;20504;43.214;27.920;2022-11-23T09:06:12;96825.97;;;18.76;100.00
34243;BME280;20504;43.214;27.920;2022-11-23T09:09:01;96727.16;;;18.16;100.00
34243;BME280;20504;43.214;27.920;2022-11-23T09:11:42;96744.78;;;18.40;100.00
34243;BME280;20504;43.214;27.920;2022-11-23T09:14:10;96654.97;;;18.26;100.00
34243;BME280;20504;43.214;27.920;2022-11-23T09:16:37;96645.13;;;18.15;100.00
34243;BME280;20504;43.214;27.920;2022-11-23T09:19:05;96699.31;;;18.45;100.00
34243;BME280;20504;43.214;27.920;2022-11-23T09:21:41;96642.88;;;18.40;100.00
34243;BME280;20504;43.214;27.920;2022-11-23T09:24:12;96578.72;;;17.89;100.00
34243;BME280;20504;43.214;27.920;2022-11-23T09:26:41;96572.38;;;17.95;100.00
34243;BME280;20504;43.214;27.920;2022-11-23T09:29:32;96570.22;;;18.59;100.00
34243;BME280;20504;43.214;27.920;2022-11-23T09:32:15;96558.34;;;18.55;100.00
34243;BME280;20504;43.214;27.920;2022-11-23T09:34:43;96501.81;;;18.23;100.00
34243;BME280;20504;43.214;27.920;2022-11-23T09:37:11;96478.63;;;18.50;100.00
34243;BME280;20504;43.214;27.920;2022-11-23T09:39:39;96446.00;;;18.58;100.00
34243;BME280;20504;43.214;27.920;2022-11-23T09:50:51;96330.75;;;18.63;100.00
34243;BME280;20504;43.214;27.920;2022-11-23T09:53:27;96305.69;;;18.58;100.00
34243;BME280;20504;43.214;27.920;2022-11-23T09:55:55;96275.00;;;18.49;100.00
34243;BME280;20504;43.214;27.920;2022-11-23T09:58:26;96207.44;;;18.52;100.00
34243;BME280;20504;43.214;27.920;2022-11-23T10:01:06;96174.34;;;18.63;100.00
34243;BME280;20504;43.214;27.920;2022-11-23T10:03:36;96147.84;;;18.44;100.00
34243;BME280;20504;43.214;27.920;2022-11-23T10:06:04;96073.81;;;18.75;100.00
34243;BME280;20504;43.214;27.920;2022-11-23T10:11:38;96057.94;;;18.69;100.00
34243;BME280;20504;43.214;27.920;2022-11-23T10:14:24;96010.47;;;18.74;100.00
34243;BME280;20504;43.214;27.920;2022-11-23T10:22:11;95998.03;;;19.00;100.00
34243;BME280;20504;43.214;27.920;2022-11-23T10:24:45;95983.03;;;19.15;100.00
34243;BME280;20504;43.214;27.920;2022-11-23T10:27:22;96043.53;;;18.80;100.00
34243;BME280;20504;43.214;27.920;2022-11-23T10:29:49;96064.78;;;18.87;100.00
34243;BME280;20504;43.214;27.920;2022-11-23T10:35:11;96072.56;;;18.88;100.00
34243;BME280;20504;43.214;27.920;2022-11-23T10:37:41;96017.69;;;19.16;100.00
34243;BME280;20504;43.214;27.920;2022-11-23T10:40:20;96088.09;;;18.81;100.00
34243;BME280;20504;43.214;27.920;2022-11-23T10:42:53;96076.28;;;18.82;100.00
34243;BME280;20504;43.214;27.920;2022-11-23T10:45:25;95995.41;;;19.21;100.00
34243;BME280;20504;43.214;27.920;2022-11-23T10:47:59;96030.22;;;19.00;100.00
34243;BME280;20504;43.214;27.920;2022-11-23T10:50:36;96006.25;;;18.79;100.00
34243;BME280;20504;43.214;27.920;2022-11-23T10:55:32;95930.72;;;19.32;100.00
34243;BME280;20504;43.214;27.920;2022-11-23T10:58:41;95990.88;;;19.31;100.00
34243;BME280;20504;43.214;27.920;2022-11-23T11:01:15;96021.72;;;19.19;100.00
34243;BME280;20504;43.214;27.920;2022-11-23T11:03:41;96027.06;;;19.14;100.00
34243;BME280;20504;43.214;27.920;2022-11-23T11:06:08;95978.19;;;19.06;100.00
34243;BME280;20504;43.214;27.920;2022-11-23T11:11:31;96017.38;;;19.13;100.00
34243;BME280;20504;43.214;27.920;2022-11-23T11:14:22;95975.41;;;19.54;100.00
34243;BME280;20504;43.214;27.920;2022-11-23T11:16:52;95982.00;;;19.26;100.00
34243;BME280;20504;43.214;27.920;2022-11-23T11:19:33;95993.34;;;19.38;100.00
34243;BME280;20504;43.214;27.920;2022-11-23T11:22:01;95912.56;;;19.80;100.00
34243;BME280;20504;43.214;27.920;2022-11-23T11:24:35;95978.91;;;19.64;100.00
34243;BME280;20504;43.214;27.920;2022-11-23T11:27:14;95947.69;;;19.38;100.00
34243;BME280;20504;43.214;27.920;2022-11-23T11:30:06;96022.44;;;19.56;100.00
34243;BME280;20504;43.214;27.920;2022-11-23T11:32:54;96005.69;;;19.44;100.00
34243;BME280;20504;43.214;27.920;2022-11-23T11:35:31;96052.97;;;19.50;100.00
34243;BME280;20504;43.214;27.920;2022-11-23T11:38:20;96040.63;;;19.44;100.00
34243;BME280;20504;43.214;27.920;2022-11-23T11:40:50;96009.47;;;19.43;100.00
34243;BME280;20504;43.214;27.920;2022-11-23T11:43:43;96061.56;;;19.37;100.00
34243;BME280;20504;43.214;27.920;2022-11-23T11:46:17;96071.69;;;19.25;100.00
34243;BME280;20504;43.214;27.920;2022-11-23T11:51:42;96036.59;;;19.42;100.00
34243;BME280;20504;43.214;27.920;2022-11-23T11:57:20;96005.69;;;19.39;100.00
34243;BME280;20504;43.214;27.920;2022-11-23T11:59:54;95950.31;;;19.23;100.00
34243;BME280;20504;43.214;27.920;2022-11-23T12:05:53;95994.41;;;19.37;100.00
34243;BME280;20504;43.214;27.920;2022-11-23T12:08:30;96056.56;;;19.09;100.00
34243;BME280;20504;43.214;27.920;2022-11-23T12:11:05;96159.50;;;18.87;100.00
34243;BME280;20504;43.214;27.920;2022-11-23T12:13:43;96194.69;;;18.91;100.00
34243;BME280;20504;43.214;27.920;2022-11-23T12:31:18;96454.63;;;18.60;100.00
34243;BME280;20504;43.214;27.920;2022-11-23T12:48:45;96628.34;;;18.53;100.00
34243;BME280;20504;43.214;27.920;2022-11-23T12:51:35;96615.13;;;18.63;100.00
34243;BME280;20504;43.214;27.920;2022-11-23T12:57:07;96661.59;;;18.52;100.00
34243;BME280;20504;43.214;27.920;2022-11-23T13:00:00;96651.75;;;18.58;100.00
34243;BME280;20504;43.214;27.920;2022-11-23T13:21:58;96609.00;;;19.01;100.00
34243;BME280;20504;43.214;27.920;2022-11-23T13:24:34;96679.97;;;18.60;100.00
34243;BME280;20504;43.214;27.920;2022-11-23T13:40:30;96744.91;;;18.74;100.00
34243;BME280;20504;43.214;27.920;2022-11-23T13:43:13;96723.34;;;18.69;100.00
34243;BME280;20504;43.214;27.920;2022-11-23T13:45:40;96716.19;;;18.91;100.00
34243;BME280;20504;43.214;27.920;2022-11-23T13:48:16;96790.06;;;18.94;100.00
34243;BME280;20504;43.214;27.920;2022-11-23T13:50:58;96788.63;;;18.46;100.00
34243;BME280;20504;43.214;27.920;2022-11-23T13:53:50;96810.66;;;19.05;100.00
34243;BME280;20504;43.214;27.920;2022-11-23T13:56:38;96868.06;;;18.87;100.00
34243;BME280;20504;43.214;27.920;2022-11-23T13:59:30;96834.03;;;18.76;100.00
34243;BME280;20504;43.214;27.920;2022-11-23T14:04:40;96870.25;;;18.90;100.00
34243;BME280;20504;43.214;27.920;2022-11-23T14:07:25;96863.91;;;18.80;100.00
34243;BME280;20504;43.214;27.920;2022-11-23T14:10:04;96920.78;;;18.93;100.00
34243;BME280;20504;43.214;27.920;2022-11-23T14:15:40;96935.19;;;18.75;100.00
34243;BME280;20504;43.214;27.920;2022-11-23T14:18:39;96982.66;;;18.98;100.00
34243;BME280;20504;43.214;27.920;2022-11-23T14:21:37;97003.91;;;18.88;100.00
34243;BME280;20504;43.214;27.920;2022-11-23T14:24:24;97020.25;;;18.87;100.00
34243;BME280;20504;43.214;27.920;2022-11-23T14:27:40;96970.47;;;18.67;100.00
34243;BME280;20504;43.214;27.920;2022-11-23T14:30:27;96996.81;;;18.70;100.00
34243;BME280;20504;43.214;27.920;2022-11-23T14:42:25;97058.16;;;18.55;100.00
34243;BME280;20504;43.214;27.920;2022-11-23T14:44:53;97021.31;;;18.27;100.00
34243;BME280;20504;43.214;27.920;2022-11-23T14:47:25;97072.75;;;18.48;100.00
34243;BME280;20504;43.214;27.920;2022-11-23T14:50:03;97032.38;;;18.31;100.00
34243;BME280;20504;43.214;27.920;2022-11-23T14:52:35;97076.00;;;18.50;100.00
34243;BME280;20504;43.214;27.920;2022-11-23T14:55:04;97080.44;;;18.56;100.00
34243;BME280;20504;43.214;27.920;2022-11-23T14:57:45;97014.44;;;18.66;100.00
34243;BME280;20504;43.214;27.920;2022-11-23T15:00:32;97067.16;;;18.61;100.00
34243;BME280;20504;43.214;27.920;2022-11-23T15:03:06;96996.31;;;18.03;100.00
34243;BME280;20504;43.214;27.920;2022-11-23T15:06:15;97060.97;;;18.60;100.00
34243;BME280;20504;43.214;27.920;2022-11-23T15:27:24;96962.66;;;18.19;100.00
34243;BME280;20504;43.214;27.920;2022-11-23T15:34:15;97041.97;;;18.62;100.00
34243;BME280;20504;43.214;27.920;2022-11-23T15:51:40;96938.75;;;18.17;100.00
34243;BME280;20504;43.214;27.920;2022-11-23T15:55:07;96979.19;;;18.39;100.00
34243;BME280;20504;43.214;27.920;2022-11-23T16:00:26;97010.38;;;18.64;100.00
34243;BME280;20504;43.214;27.920;2022-11-23T16:27:12;97034.03;;;18.90;100.00